sensor_id;sensor_type;location;lat;lon;timestamp;P1;durP1;ratioP1;P2;durP2;ratioP2
37355;SDS011;48747;50.250;18.848;2023-10-31T00:00:10;13.22;;;4.35;;
37355;SDS011;48747;50.250;18.848;2023-10-31T00:02:13;11.15;;;4.67;;
37355;SDS011;48747;50.250;18.848;2023-10-31T00:04:16;15.93;;;4.70;;
37355;SDS011;48747;50.250;18.848;2023-10-31T00:06:19;13.90;;;4.45;;
37355;SDS011;48747;50.250;18.848;2023-10-31T00:08:23;10.65;;;4.30;;
37355;SDS011;48747;50.250;18.848;2023-10-31T00:10:26;9.98;;;4.20;;
37355;SDS011;48747;50.250;18.848;2023-10-31T00:12:29;12.78;;;5.00;;
37355;SDS011;48747;50.250;18.848;2023-10-31T00:14:32;11.28;;;3.90;;
37355;SDS011;48747;50.250;18.848;2023-10-31T00:16:35;11.48;;;4.12;;
37355;SDS011;48747;50.250;18.848;2023-10-31T00:18:38;10.70;;;5.00;;
37355;SDS011;48747;50.250;18.848;2023-10-31T00:20:41;11.48;;;4.72;;
37355;SDS011;48747;50.250;18.848;2023-10-31T00:22:44;10.70;;;5.00;;
37355;SDS011;48747;50.250;18.848;2023-10-31T00:24:47;9.25;;;4.15;;
37355;SDS011;48747;50.250;18.848;2023-10-31T00:26:50;10.20;;;3.75;;
37355;SDS011;48747;50.250;18.848;2023-10-31T00:28:54;9.15;;;4.10;;
37355;SDS011;48747;50.250;18.848;2023-10-31T00:30:57;16.65;;;4.60;;
37355;SDS011;48747;50.250;18.848;2023-10-31T00:33:01;6.17;;;3.33;;
37355;SDS011;48747;50.250;18.848;2023-10-31T00:35:04;8.65;;;2.95;;
37355;SDS011;48747;50.250;18.848;2023-10-31T00:37:08;9.50;;;3.27;;
37355;SDS011;48747;50.250;18.848;2023-10-31T00:39:11;11.95;;;3.50;;
37355;SDS011;48747;50.250;18.848;2023-10-31T00:41:14;6.90;;;2.55;;
37355;SDS011;48747;50.250;18.848;2023-10-31T00:43:17;9.75;;;3.15;;
37355;SDS011;48747;50.250;18.848;2023-10-31T00:45:20;9.88;;;3.27;;
37355;SDS011;48747;50.250;18.848;2023-10-31T00:47:23;10.38;;;3.15;;
37355;SDS011;48747;50.250;18.848;2023-10-31T00:49:26;10.98;;;4.12;;
37355;SDS011;48747;50.250;18.848;2023-10-31T00:51:29;10.03;;;3.80;;
37355;SDS011;48747;50.250;18.848;2023-10-31T00:53:32;9.40;;;3.10;;
37355;SDS011;48747;50.250;18.848;2023-10-31T00:55:35;11.85;;;3.72;;
37355;SDS011;48747;50.250;18.848;2023-10-31T00:57:39;11.85;;;3.20;;
37355;SDS011;48747;50.250;18.848;2023-10-31T00:59:42;6.10;;;3.08;;
37355;SDS011;48747;50.250;18.848;2023-10-31T01:01:45;11.48;;;3.55;;
37355;SDS011;48747;50.250;18.848;2023-10-31T01:03:48;8.28;;;2.40;;
37355;SDS011;48747;50.250;18.848;2023-10-31T01:05:51;5.78;;;2.52;;
37355;SDS011;48747;50.250;18.848;2023-10-31T01:07:54;7.53;;;2.67;;
37355;SDS011;48747;50.250;18.848;2023-10-31T01:09:57;6.37;;;2.30;;
37355;SDS011;48747;50.250;18.848;2023-10-31T01:12:00;7.80;;;2.30;;
37355;SDS011;48747;50.250;18.848;2023-10-31T01:14:03;4.83;;;2.25;;
37355;SDS011;48747;50.250;18.848;2023-10-31T01:16:06;9.55;;;2.02;;
37355;SDS011;48747;50.250;18.848;2023-10-31T01:18:10;5.65;;;2.33;;
37355;SDS011;48747;50.250;18.848;2023-10-31T01:20:13;5.72;;;2.17;;
37355;SDS011;48747;50.250;18.848;2023-10-31T01:22:16;8.68;;;1.70;;
37355;SDS011;48747;50.250;18.848;2023-10-31T01:24:19;5.53;;;1.70;;
37355;SDS011;48747;50.250;18.848;2023-10-31T01:26:22;11.25;;;2.20;;
37355;SDS011;48747;50.250;18.848;2023-10-31T01:28:25;4.97;;;1.60;;
37355;SDS011;48747;50.250;18.848;2023-10-31T01:30:28;4.50;;;2.08;;
37355;SDS011;48747;50.250;18.848;2023-10-31T01:32:31;6.15;;;1.65;;
37355;SDS011;48747;50.250;18.848;2023-10-31T01:34:34;4.45;;;1.45;;
37355;SDS011;48747;50.250;18.848;2023-10-31T01:36:37;2.58;;;1.30;;
37355;SDS011;48747;50.250;18.848;2023-10-31T01:38:40;4.17;;;1.70;;
37355;SDS011;48747;50.250;18.848;2023-10-31T01:40:43;5.12;;;1.60;;
37355;SDS011;48747;50.250;18.848;2023-10-31T01:42:46;4.30;;;1.90;;
37355;SDS011;48747;50.250;18.848;2023-10-31T01:44:49;2.72;;;1.45;;
37355;SDS011;48747;50.250;18.848;2023-10-31T01:46:52;5.35;;;1.40;;
37355;SDS011;48747;50.250;18.848;2023-10-31T01:48:55;3.02;;;1.47;;
37355;SDS011;48747;50.250;18.848;2023-10-31T01:50:59;3.27;;;1.50;;
37355;SDS011;48747;50.250;18.848;2023-10-31T01:53:04;6.78;;;1.40;;
37355;SDS011;48747;50.250;18.848;2023-10-31T01:55:07;2.80;;;1.47;;
37355;SDS011;48747;50.250;18.848;2023-10-31T01:57:11;3.70;;;1.42;;
37355;SDS011;48747;50.250;18.848;2023-10-31T01:59:16;5.72;;;1.32;;
37355;SDS011;48747;50.250;18.848;2023-10-31T02:01:19;4.58;;;1.62;;
37355;SDS011;48747;50.250;18.848;2023-10-31T02:03:23;5.65;;;1.40;;
37355;SDS011;48747;50.250;18.848;2023-10-31T02:05:26;5.90;;;1.60;;
37355;SDS011;48747;50.250;18.848;2023-10-31T02:07:30;3.62;;;1.40;;
37355;SDS011;48747;50.250;18.848;2023-10-31T02:09:33;6.47;;;1.67;;
37355;SDS011;48747;50.250;18.848;2023-10-31T02:11:36;7.15;;;2.20;;
37355;SDS011;48747;50.250;18.848;2023-10-31T02:13:40;6.53;;;2.08;;
37355;SDS011;48747;50.250;18.848;2023-10-31T02:15:43;7.75;;;1.90;;
37355;SDS011;48747;50.250;18.848;2023-10-31T02:17:47;7.40;;;2.12;;
37355;SDS011;48747;50.250;18.848;2023-10-31T02:19:50;5.42;;;1.87;;
37355;SDS011;48747;50.250;18.848;2023-10-31T02:21:53;3.92;;;2.00;;
37355;SDS011;48747;50.250;18.848;2023-10-31T02:24:02;7.12;;;2.00;;
37355;SDS011;48747;50.250;18.848;2023-10-31T02:26:01;5.20;;;2.10;;
37355;SDS011;48747;50.250;18.848;2023-10-31T02:28:05;8.85;;;2.12;;
37355;SDS011;48747;50.250;18.848;2023-10-31T02:30:08;7.37;;;2.05;;
37355;SDS011;48747;50.250;18.848;2023-10-31T02:32:11;10.95;;;2.40;;
37355;SDS011;48747;50.250;18.848;2023-10-31T02:34:14;8.03;;;2.20;;
37355;SDS011;48747;50.250;18.848;2023-10-31T02:36:17;6.00;;;2.17;;
37355;SDS011;48747;50.250;18.848;2023-10-31T02:38:21;12.28;;;2.20;;
37355;SDS011;48747;50.250;18.848;2023-10-31T02:40:24;10.28;;;2.40;;
37355;SDS011;48747;50.250;18.848;2023-10-31T02:42:27;7.65;;;2.20;;
37355;SDS011;48747;50.250;18.848;2023-10-31T02:44:30;6.70;;;2.10;;
37355;SDS011;48747;50.250;18.848;2023-10-31T02:46:37;5.65;;;1.85;;
37355;SDS011;48747;50.250;18.848;2023-10-31T02:48:41;7.08;;;1.92;;
37355;SDS011;48747;50.250;18.848;2023-10-31T02:50:44;4.87;;;1.85;;
37355;SDS011;48747;50.250;18.848;2023-10-31T02:52:47;7.17;;;1.90;;
37355;SDS011;48747;50.250;18.848;2023-10-31T02:54:50;4.50;;;1.90;;
37355;SDS011;48747;50.250;18.848;2023-10-31T02:56:53;4.65;;;1.80;;
37355;SDS011;48747;50.250;18.848;2023-10-31T02:58:56;3.00;;;1.50;;
37355;SDS011;48747;50.250;18.848;2023-10-31T03:00:59;6.67;;;1.92;;
37355;SDS011;48747;50.250;18.848;2023-10-31T03:03:02;7.78;;;1.65;;
37355;SDS011;48747;50.250;18.848;2023-10-31T03:05:06;6.90;;;1.90;;
37355;SDS011;48747;50.250;18.848;2023-10-31T03:07:09;6.67;;;1.60;;
37355;SDS011;48747;50.250;18.848;2023-10-31T03:09:12;7.67;;;1.87;;
37355;SDS011;48747;50.250;18.848;2023-10-31T03:11:26;5.50;;;2.02;;
37355;SDS011;48747;50.250;18.848;2023-10-31T03:13:26;6.03;;;1.98;;
37355;SDS011;48747;50.250;18.848;2023-10-31T03:15:29;5.70;;;2.10;;
37355;SDS011;48747;50.250;18.848;2023-10-31T03:17:32;7.05;;;1.87;;
37355;SDS011;48747;50.250;18.848;2023-10-31T03:19:35;5.22;;;1.90;;
37355;SDS011;48747;50.250;18.848;2023-10-31T03:21:38;6.80;;;2.05;;
37355;SDS011;48747;50.250;18.848;2023-10-31T03:23:42;6.60;;;1.90;;
37355;SDS011;48747;50.250;18.848;2023-10-31T03:25:46;5.97;;;2.02;;
37355;SDS011;48747;50.250;18.848;2023-10-31T03:27:49;4.33;;;2.30;;
37355;SDS011;48747;50.250;18.848;2023-10-31T03:29:52;8.85;;;2.22;;
37355;SDS011;48747;50.250;18.848;2023-10-31T03:31:56;7.75;;;2.30;;
37355;SDS011;48747;50.250;18.848;2023-10-31T03:33:59;7.58;;;2.47;;
37355;SDS011;48747;50.250;18.848;2023-10-31T03:36:02;7.30;;;1.98;;
37355;SDS011;48747;50.250;18.848;2023-10-31T03:38:07;6.05;;;1.72;;
37355;SDS011;48747;50.250;18.848;2023-10-31T03:40:11;7.55;;;2.20;;
37355;SDS011;48747;50.250;18.848;2023-10-31T03:42:14;5.40;;;2.17;;
37355;SDS011;48747;50.250;18.848;2023-10-31T03:44:17;5.35;;;2.10;;
37355;SDS011;48747;50.250;18.848;2023-10-31T03:46:20;5.15;;;2.45;;
37355;SDS011;48747;50.250;18.848;2023-10-31T03:48:23;6.42;;;2.20;;
37355;SDS011;48747;50.250;18.848;2023-10-31T03:50:26;7.50;;;2.17;;
37355;SDS011;48747;50.250;18.848;2023-10-31T03:52:30;8.98;;;2.12;;
37355;SDS011;48747;50.250;18.848;2023-10-31T03:54:33;5.58;;;2.17;;
37355;SDS011;48747;50.250;18.848;2023-10-31T03:56:39;8.20;;;2.25;;
37355;SDS011;48747;50.250;18.848;2023-10-31T03:58:44;7.20;;;2.20;;
37355;SDS011;48747;50.250;18.848;2023-10-31T04:00:47;11.10;;;2.45;;
37355;SDS011;48747;50.250;18.848;2023-10-31T04:02:50;6.72;;;2.17;;
37355;SDS011;48747;50.250;18.848;2023-10-31T04:04:53;6.45;;;2.00;;
37355;SDS011;48747;50.250;18.848;2023-10-31T04:06:56;5.87;;;1.90;;
37355;SDS011;48747;50.250;18.848;2023-10-31T04:08:59;7.20;;;1.82;;
37355;SDS011;48747;50.250;18.848;2023-10-31T04:11:02;6.03;;;1.90;;
37355;SDS011;48747;50.250;18.848;2023-10-31T04:13:05;6.55;;;2.27;;
37355;SDS011;48747;50.250;18.848;2023-10-31T04:15:08;6.37;;;2.00;;
37355;SDS011;48747;50.250;18.848;2023-10-31T04:17:12;7.17;;;2.00;;
37355;SDS011;48747;50.250;18.848;2023-10-31T04:19:15;3.52;;;2.00;;
37355;SDS011;48747;50.250;18.848;2023-10-31T04:21:18;4.65;;;2.08;;
37355;SDS011;48747;50.250;18.848;2023-10-31T04:23:21;5.92;;;2.08;;
37355;SDS011;48747;50.250;18.848;2023-10-31T04:25:24;6.90;;;2.10;;
37355;SDS011;48747;50.250;18.848;2023-10-31T04:27:28;4.30;;;2.10;;
37355;SDS011;48747;50.250;18.848;2023-10-31T04:29:31;7.92;;;2.35;;
37355;SDS011;48747;50.250;18.848;2023-10-31T04:31:34;8.10;;;2.27;;
37355;SDS011;48747;50.250;18.848;2023-10-31T04:33:37;4.53;;;1.72;;
37355;SDS011;48747;50.250;18.848;2023-10-31T04:35:40;6.72;;;2.22;;
37355;SDS011;48747;50.250;18.848;2023-10-31T04:37:43;10.38;;;2.33;;
37355;SDS011;48747;50.250;18.848;2023-10-31T04:39:46;6.28;;;2.42;;
37355;SDS011;48747;50.250;18.848;2023-10-31T04:41:49;7.05;;;2.05;;
37355;SDS011;48747;50.250;18.848;2023-10-31T04:43:52;10.90;;;2.65;;
37355;SDS011;48747;50.250;18.848;2023-10-31T04:45:55;6.80;;;3.20;;
37355;SDS011;48747;50.250;18.848;2023-10-31T04:47:58;8.88;;;2.10;;
37355;SDS011;48747;50.250;18.848;2023-10-31T04:50:01;7.50;;;2.05;;
37355;SDS011;48747;50.250;18.848;2023-10-31T04:52:04;5.80;;;2.02;;
37355;SDS011;48747;50.250;18.848;2023-10-31T04:54:07;6.40;;;2.50;;
37355;SDS011;48747;50.250;18.848;2023-10-31T04:56:14;6.10;;;1.75;;
37355;SDS011;48747;50.250;18.848;2023-10-31T04:58:18;9.03;;;1.85;;
37355;SDS011;48747;50.250;18.848;2023-10-31T05:00:21;9.18;;;2.50;;
37355;SDS011;48747;50.250;18.848;2023-10-31T05:02:24;5.47;;;2.10;;
37355;SDS011;48747;50.250;18.848;2023-10-31T05:04:27;5.72;;;1.90;;
37355;SDS011;48747;50.250;18.848;2023-10-31T05:06:30;6.72;;;2.05;;
37355;SDS011;48747;50.250;18.848;2023-10-31T05:08:33;4.22;;;1.72;;
37355;SDS011;48747;50.250;18.848;2023-10-31T05:10:36;4.72;;;2.25;;
37355;SDS011;48747;50.250;18.848;2023-10-31T05:12:39;4.22;;;2.00;;
37355;SDS011;48747;50.250;18.848;2023-10-31T05:14:42;6.87;;;2.12;;
37355;SDS011;48747;50.250;18.848;2023-10-31T05:16:45;5.85;;;2.17;;
37355;SDS011;48747;50.250;18.848;2023-10-31T05:18:48;7.78;;;2.00;;
37355;SDS011;48747;50.250;18.848;2023-10-31T05:20:51;7.50;;;1.82;;
37355;SDS011;48747;50.250;18.848;2023-10-31T05:22:54;6.97;;;2.22;;
37355;SDS011;48747;50.250;18.848;2023-10-31T05:24:57;6.67;;;2.30;;
37355;SDS011;48747;50.250;18.848;2023-10-31T05:27:00;7.10;;;1.92;;
37355;SDS011;48747;50.250;18.848;2023-10-31T05:29:03;7.03;;;2.30;;
37355;SDS011;48747;50.250;18.848;2023-10-31T05:31:06;7.85;;;2.12;;
37355;SDS011;48747;50.250;18.848;2023-10-31T05:33:09;8.08;;;1.90;;
37355;SDS011;48747;50.250;18.848;2023-10-31T05:35:12;8.23;;;2.27;;
37355;SDS011;48747;50.250;18.848;2023-10-31T05:37:15;5.10;;;2.33;;
37355;SDS011;48747;50.250;18.848;2023-10-31T05:39:18;8.63;;;2.15;;
37355;SDS011;48747;50.250;18.848;2023-10-31T05:41:21;5.83;;;2.15;;
37355;SDS011;48747;50.250;18.848;2023-10-31T05:43:24;8.58;;;2.52;;
37355;SDS011;48747;50.250;18.848;2023-10-31T05:45:27;7.35;;;2.27;;
37355;SDS011;48747;50.250;18.848;2023-10-31T05:47:30;6.00;;;2.10;;
37355;SDS011;48747;50.250;18.848;2023-10-31T05:49:35;4.47;;;1.90;;
37355;SDS011;48747;50.250;18.848;2023-10-31T05:51:38;9.23;;;2.30;;
37355;SDS011;48747;50.250;18.848;2023-10-31T05:53:41;9.03;;;2.17;;
37355;SDS011;48747;50.250;18.848;2023-10-31T05:55:45;5.95;;;2.40;;
37355;SDS011;48747;50.250;18.848;2023-10-31T05:57:48;5.75;;;2.10;;
37355;SDS011;48747;50.250;18.848;2023-10-31T05:59:51;3.52;;;1.80;;
37355;SDS011;48747;50.250;18.848;2023-10-31T06:01:54;4.83;;;2.27;;
37355;SDS011;48747;50.250;18.848;2023-10-31T06:03:57;5.25;;;1.92;;
37355;SDS011;48747;50.250;18.848;2023-10-31T06:06:00;4.83;;;1.92;;
37355;SDS011;48747;50.250;18.848;2023-10-31T06:08:04;4.28;;;2.00;;
37355;SDS011;48747;50.250;18.848;2023-10-31T06:10:07;6.97;;;2.20;;
37355;SDS011;48747;50.250;18.848;2023-10-31T06:12:10;5.78;;;2.17;;
37355;SDS011;48747;50.250;18.848;2023-10-31T06:14:13;6.17;;;2.70;;
37355;SDS011;48747;50.250;18.848;2023-10-31T06:16:16;6.28;;;2.10;;
37355;SDS011;48747;50.250;18.848;2023-10-31T06:18:19;7.03;;;2.12;;
37355;SDS011;48747;50.250;18.848;2023-10-31T06:20:22;7.33;;;2.15;;
37355;SDS011;48747;50.250;18.848;2023-10-31T06:22:25;6.10;;;2.27;;
37355;SDS011;48747;50.250;18.848;2023-10-31T06:24:28;7.17;;;2.17;;
37355;SDS011;48747;50.250;18.848;2023-10-31T06:26:31;7.83;;;2.25;;
37355;SDS011;48747;50.250;18.848;2023-10-31T06:28:34;5.85;;;2.37;;
37355;SDS011;48747;50.250;18.848;2023-10-31T06:30:38;4.00;;;1.98;;
37355;SDS011;48747;50.250;18.848;2023-10-31T06:32:41;7.08;;;1.87;;
37355;SDS011;48747;50.250;18.848;2023-10-31T06:34:44;4.83;;;2.25;;
37355;SDS011;48747;50.250;18.848;2023-10-31T06:36:47;6.15;;;1.87;;
37355;SDS011;48747;50.250;18.848;2023-10-31T06:38:50;4.78;;;2.20;;
37355;SDS011;48747;50.250;18.848;2023-10-31T06:40:53;5.75;;;2.35;;
37355;SDS011;48747;50.250;18.848;2023-10-31T06:42:58;5.03;;;2.10;;
37355;SDS011;48747;50.250;18.848;2023-10-31T06:45:01;7.25;;;2.30;;
37355;SDS011;48747;50.250;18.848;2023-10-31T06:47:04;7.58;;;1.75;;
37355;SDS011;48747;50.250;18.848;2023-10-31T06:49:07;4.83;;;2.00;;
37355;SDS011;48747;50.250;18.848;2023-10-31T06:51:10;5.03;;;1.60;;
37355;SDS011;48747;50.250;18.848;2023-10-31T06:53:13;7.37;;;2.10;;
37355;SDS011;48747;50.250;18.848;2023-10-31T06:55:16;4.95;;;2.02;;
37355;SDS011;48747;50.250;18.848;2023-10-31T06:57:19;3.67;;;1.82;;
37355;SDS011;48747;50.250;18.848;2023-10-31T06:59:22;4.92;;;2.00;;
37355;SDS011;48747;50.250;18.848;2023-10-31T07:01:25;8.60;;;2.65;;
37355;SDS011;48747;50.250;18.848;2023-10-31T07:03:28;6.10;;;2.33;;
37355;SDS011;48747;50.250;18.848;2023-10-31T07:05:31;9.15;;;2.00;;
37355;SDS011;48747;50.250;18.848;2023-10-31T07:07:35;7.00;;;2.83;;
37355;SDS011;48747;50.250;18.848;2023-10-31T07:09:38;4.42;;;1.90;;
37355;SDS011;48747;50.250;18.848;2023-10-31T07:11:41;21.70;;;2.42;;
37355;SDS011;48747;50.250;18.848;2023-10-31T07:13:44;5.50;;;2.33;;
37355;SDS011;48747;50.250;18.848;2023-10-31T07:15:47;6.30;;;2.20;;
37355;SDS011;48747;50.250;18.848;2023-10-31T07:17:50;6.67;;;2.10;;
37355;SDS011;48747;50.250;18.848;2023-10-31T07:19:53;5.15;;;2.00;;
37355;SDS011;48747;50.250;18.848;2023-10-31T07:21:56;11.38;;;2.65;;
37355;SDS011;48747;50.250;18.848;2023-10-31T07:24:00;8.03;;;2.17;;
37355;SDS011;48747;50.250;18.848;2023-10-31T07:26:03;5.97;;;2.30;;
37355;SDS011;48747;50.250;18.848;2023-10-31T07:28:06;6.62;;;1.95;;
37355;SDS011;48747;50.250;18.848;2023-10-31T07:30:09;6.75;;;1.98;;
37355;SDS011;48747;50.250;18.848;2023-10-31T07:32:13;6.05;;;2.40;;
37355;SDS011;48747;50.250;18.848;2023-10-31T07:34:16;7.28;;;2.33;;
37355;SDS011;48747;50.250;18.848;2023-10-31T07:36:19;6.22;;;2.30;;
37355;SDS011;48747;50.250;18.848;2023-10-31T07:38:22;5.42;;;2.35;;
37355;SDS011;48747;50.250;18.848;2023-10-31T07:40:25;5.67;;;2.12;;
37355;SDS011;48747;50.250;18.848;2023-10-31T07:42:28;6.55;;;2.62;;
37355;SDS011;48747;50.250;18.848;2023-10-31T07:44:31;8.85;;;2.37;;
37355;SDS011;48747;50.250;18.848;2023-10-31T07:46:34;8.95;;;2.70;;
37355;SDS011;48747;50.250;18.848;2023-10-31T07:48:37;5.03;;;2.20;;
37355;SDS011;48747;50.250;18.848;2023-10-31T07:50:40;5.00;;;2.27;;
37355;SDS011;48747;50.250;18.848;2023-10-31T07:52:43;7.37;;;2.50;;
37355;SDS011;48747;50.250;18.848;2023-10-31T07:54:47;9.00;;;2.70;;
37355;SDS011;48747;50.250;18.848;2023-10-31T07:56:51;8.33;;;2.60;;
37355;SDS011;48747;50.250;18.848;2023-10-31T07:58:54;6.80;;;2.45;;
37355;SDS011;48747;50.250;18.848;2023-10-31T08:00:57;7.83;;;3.02;;
37355;SDS011;48747;50.250;18.848;2023-10-31T08:03:00;4.87;;;2.37;;
37355;SDS011;48747;50.250;18.848;2023-10-31T08:05:04;7.72;;;2.55;;
37355;SDS011;48747;50.250;18.848;2023-10-31T08:07:08;5.65;;;2.20;;
37355;SDS011;48747;50.250;18.848;2023-10-31T08:09:11;9.20;;;2.52;;
37355;SDS011;48747;50.250;18.848;2023-10-31T08:11:14;8.20;;;2.72;;
37355;SDS011;48747;50.250;18.848;2023-10-31T08:13:17;6.12;;;2.55;;
37355;SDS011;48747;50.250;18.848;2023-10-31T08:15:20;12.20;;;4.72;;
37355;SDS011;48747;50.250;18.848;2023-10-31T08:17:24;7.62;;;2.80;;
37355;SDS011;48747;50.250;18.848;2023-10-31T08:19:27;6.05;;;2.67;;
37355;SDS011;48747;50.250;18.848;2023-10-31T08:21:30;4.67;;;2.47;;
37355;SDS011;48747;50.250;18.848;2023-10-31T08:23:34;8.60;;;2.83;;
37355;SDS011;48747;50.250;18.848;2023-10-31T08:25:38;8.60;;;4.05;;
37355;SDS011;48747;50.250;18.848;2023-10-31T08:27:43;7.50;;;3.25;;
37355;SDS011;48747;50.250;18.848;2023-10-31T08:29:46;4.95;;;2.60;;
37355;SDS011;48747;50.250;18.848;2023-10-31T08:31:49;7.28;;;3.08;;
37355;SDS011;48747;50.250;18.848;2023-10-31T08:33:52;10.48;;;3.27;;
37355;SDS011;48747;50.250;18.848;2023-10-31T08:35:55;10.25;;;3.45;;
37355;SDS011;48747;50.250;18.848;2023-10-31T08:37:58;7.83;;;3.17;;
37355;SDS011;48747;50.250;18.848;2023-10-31T08:40:01;5.33;;;3.17;;
37355;SDS011;48747;50.250;18.848;2023-10-31T08:42:05;7.17;;;2.70;;
37355;SDS011;48747;50.250;18.848;2023-10-31T08:44:09;8.88;;;3.00;;
37355;SDS011;48747;50.250;18.848;2023-10-31T08:46:12;11.90;;;4.40;;
37355;SDS011;48747;50.250;18.848;2023-10-31T08:48:15;8.05;;;4.33;;
37355;SDS011;48747;50.250;18.848;2023-10-31T08:50:18;8.70;;;4.78;;
37355;SDS011;48747;50.250;18.848;2023-10-31T08:52:21;8.88;;;3.83;;
37355;SDS011;48747;50.250;18.848;2023-10-31T08:54:24;8.90;;;3.50;;
37355;SDS011;48747;50.250;18.848;2023-10-31T08:56:27;7.58;;;3.08;;
37355;SDS011;48747;50.250;18.848;2023-10-31T08:58:30;10.05;;;3.90;;
37355;SDS011;48747;50.250;18.848;2023-10-31T09:00:33;8.10;;;3.62;;
37355;SDS011;48747;50.250;18.848;2023-10-31T09:02:36;11.35;;;3.98;;
37355;SDS011;48747;50.250;18.848;2023-10-31T09:04:39;9.63;;;3.60;;
37355;SDS011;48747;50.250;18.848;2023-10-31T09:06:42;8.28;;;3.60;;
37355;SDS011;48747;50.250;18.848;2023-10-31T09:08:45;8.33;;;3.45;;
37355;SDS011;48747;50.250;18.848;2023-10-31T09:10:48;10.65;;;3.58;;
37355;SDS011;48747;50.250;18.848;2023-10-31T09:12:51;6.50;;;3.72;;
37355;SDS011;48747;50.250;18.848;2023-10-31T09:14:54;8.80;;;3.90;;
37355;SDS011;48747;50.250;18.848;2023-10-31T09:16:57;10.75;;;3.70;;
37355;SDS011;48747;50.250;18.848;2023-10-31T09:19:00;11.03;;;3.60;;
37355;SDS011;48747;50.250;18.848;2023-10-31T09:21:03;8.15;;;3.62;;
37355;SDS011;48747;50.250;18.848;2023-10-31T09:23:06;8.25;;;3.65;;
37355;SDS011;48747;50.250;18.848;2023-10-31T09:25:09;9.08;;;4.15;;
37355;SDS011;48747;50.250;18.848;2023-10-31T09:27:12;7.95;;;3.90;;
37355;SDS011;48747;50.250;18.848;2023-10-31T09:29:15;7.35;;;3.25;;
37355;SDS011;48747;50.250;18.848;2023-10-31T09:31:19;6.62;;;3.45;;
37355;SDS011;48747;50.250;18.848;2023-10-31T09:33:22;8.33;;;3.75;;
37355;SDS011;48747;50.250;18.848;2023-10-31T09:35:25;6.30;;;3.52;;
37355;SDS011;48747;50.250;18.848;2023-10-31T09:37:28;6.12;;;3.72;;
37355;SDS011;48747;50.250;18.848;2023-10-31T09:39:31;6.95;;;3.77;;
37355;SDS011;48747;50.250;18.848;2023-10-31T09:41:34;9.38;;;4.00;;
37355;SDS011;48747;50.250;18.848;2023-10-31T09:43:37;9.45;;;3.22;;
37355;SDS011;48747;50.250;18.848;2023-10-31T09:45:40;6.00;;;3.25;;
37355;SDS011;48747;50.250;18.848;2023-10-31T09:47:43;7.22;;;3.30;;
37355;SDS011;48747;50.250;18.848;2023-10-31T09:49:46;6.30;;;3.50;;
37355;SDS011;48747;50.250;18.848;2023-10-31T09:51:49;10.03;;;4.80;;
37355;SDS011;48747;50.250;18.848;2023-10-31T09:53:54;9.23;;;4.67;;
37355;SDS011;48747;50.250;18.848;2023-10-31T09:55:59;11.25;;;5.50;;
37355;SDS011;48747;50.250;18.848;2023-10-31T09:58:02;8.83;;;5.08;;
37355;SDS011;48747;50.250;18.848;2023-10-31T10:00:05;12.60;;;5.12;;
37355;SDS011;48747;50.250;18.848;2023-10-31T10:02:09;9.83;;;3.52;;
37355;SDS011;48747;50.250;18.848;2023-10-31T10:04:12;7.67;;;3.92;;
37355;SDS011;48747;50.250;18.848;2023-10-31T10:06:15;5.53;;;3.37;;
37355;SDS011;48747;50.250;18.848;2023-10-31T10:08:21;7.80;;;4.62;;
37355;SDS011;48747;50.250;18.848;2023-10-31T10:10:24;11.83;;;4.42;;
37355;SDS011;48747;50.250;18.848;2023-10-31T10:12:28;8.15;;;4.33;;
37355;SDS011;48747;50.250;18.848;2023-10-31T10:14:31;7.42;;;4.28;;
37355;SDS011;48747;50.250;18.848;2023-10-31T10:16:34;7.62;;;3.62;;
37355;SDS011;48747;50.250;18.848;2023-10-31T10:18:37;6.20;;;3.33;;
37355;SDS011;48747;50.250;18.848;2023-10-31T10:20:53;8.23;;;4.15;;
37355;SDS011;48747;50.250;18.848;2023-10-31T10:23:02;6.62;;;3.47;;
37355;SDS011;48747;50.250;18.848;2023-10-31T10:25:07;10.50;;;3.40;;
37355;SDS011;48747;50.250;18.848;2023-10-31T10:27:10;5.87;;;3.62;;
37355;SDS011;48747;50.250;18.848;2023-10-31T10:29:14;7.15;;;3.90;;
37355;SDS011;48747;50.250;18.848;2023-10-31T10:31:17;6.65;;;2.87;;
37355;SDS011;48747;50.250;18.848;2023-10-31T10:33:21;10.98;;;4.03;;
37355;SDS011;48747;50.250;18.848;2023-10-31T10:35:24;7.90;;;3.95;;
37355;SDS011;48747;50.250;18.848;2023-10-31T10:37:27;5.72;;;3.17;;
37355;SDS011;48747;50.250;18.848;2023-10-31T10:39:32;5.25;;;3.20;;
37355;SDS011;48747;50.250;18.848;2023-10-31T10:41:37;5.78;;;3.02;;
37355;SDS011;48747;50.250;18.848;2023-10-31T10:43:43;7.22;;;3.20;;
37355;SDS011;48747;50.250;18.848;2023-10-31T10:45:57;5.92;;;3.00;;
37355;SDS011;48747;50.250;18.848;2023-10-31T10:48:01;5.75;;;3.30;;
37355;SDS011;48747;50.250;18.848;2023-10-31T10:50:07;7.90;;;3.27;;
37355;SDS011;48747;50.250;18.848;2023-10-31T10:52:28;5.58;;;3.10;;
37355;SDS011;48747;50.250;18.848;2023-10-31T10:54:35;7.70;;;2.87;;
37355;SDS011;48747;50.250;18.848;2023-10-31T10:56:53;7.75;;;2.60;;
37355;SDS011;48747;50.250;18.848;2023-10-31T10:59:01;8.03;;;2.95;;
37355;SDS011;48747;50.250;18.848;2023-10-31T11:01:05;7.72;;;3.35;;
37355;SDS011;48747;50.250;18.848;2023-10-31T11:03:09;5.12;;;3.12;;
37355;SDS011;48747;50.250;18.848;2023-10-31T11:05:13;8.80;;;3.08;;
37355;SDS011;48747;50.250;18.848;2023-10-31T11:07:17;4.80;;;2.50;;
37355;SDS011;48747;50.250;18.848;2023-10-31T11:09:21;5.50;;;3.02;;
37355;SDS011;48747;50.250;18.848;2023-10-31T11:11:25;6.47;;;2.42;;
37355;SDS011;48747;50.250;18.848;2023-10-31T11:13:29;7.03;;;2.65;;
37355;SDS011;48747;50.250;18.848;2023-10-31T11:15:33;5.22;;;2.70;;
37355;SDS011;48747;50.250;18.848;2023-10-31T11:17:41;7.15;;;2.60;;
37355;SDS011;48747;50.250;18.848;2023-10-31T11:19:42;8.15;;;3.12;;
37355;SDS011;48747;50.250;18.848;2023-10-31T11:21:55;7.08;;;3.37;;
37355;SDS011;48747;50.250;18.848;2023-10-31T11:24:02;6.08;;;2.50;;
37355;SDS011;48747;50.250;18.848;2023-10-31T11:26:07;5.92;;;2.80;;
37355;SDS011;48747;50.250;18.848;2023-10-31T11:28:11;5.10;;;2.50;;
37355;SDS011;48747;50.250;18.848;2023-10-31T11:32:31;6.12;;;2.83;;
37355;SDS011;48747;50.250;18.848;2023-10-31T11:34:35;9.28;;;2.45;;
37355;SDS011;48747;50.250;18.848;2023-10-31T11:36:43;5.12;;;2.58;;
37355;SDS011;48747;50.250;18.848;2023-10-31T11:38:49;7.17;;;2.47;;
37355;SDS011;48747;50.250;18.848;2023-10-31T11:43:03;6.50;;;2.60;;
37355;SDS011;48747;50.250;18.848;2023-10-31T11:45:12;5.95;;;2.98;;
37355;SDS011;48747;50.250;18.848;2023-10-31T11:47:15;6.60;;;2.52;;
37355;SDS011;48747;50.250;18.848;2023-10-31T11:49:44;6.72;;;2.87;;
37355;SDS011;48747;50.250;18.848;2023-10-31T11:51:40;7.10;;;2.92;;
37355;SDS011;48747;50.250;18.848;2023-10-31T11:53:45;5.78;;;2.27;;
37355;SDS011;48747;50.250;18.848;2023-10-31T11:55:50;5.58;;;2.45;;
37355;SDS011;48747;50.250;18.848;2023-10-31T11:57:55;5.35;;;2.55;;
37355;SDS011;48747;50.250;18.848;2023-10-31T11:59:58;4.72;;;2.05;;
37355;SDS011;48747;50.250;18.848;2023-10-31T12:02:05;5.28;;;2.58;;
37355;SDS011;48747;50.250;18.848;2023-10-31T12:04:22;6.00;;;2.40;;
37355;SDS011;48747;50.250;18.848;2023-10-31T12:06:26;5.05;;;2.80;;
37355;SDS011;48747;50.250;18.848;2023-10-31T12:08:30;4.10;;;2.60;;
37355;SDS011;48747;50.250;18.848;2023-10-31T12:10:33;4.35;;;2.70;;
37355;SDS011;48747;50.250;18.848;2023-10-31T12:12:36;4.53;;;2.20;;
37355;SDS011;48747;50.250;18.848;2023-10-31T12:14:39;3.37;;;1.70;;
37355;SDS011;48747;50.250;18.848;2023-10-31T12:16:42;6.28;;;2.02;;